Alvordton, Ohio
Current Conditions -  °F | °C
As of 4:15 PM on Friday 24 Oct 2014 (Local Time) from KUSE Reporting Station
Haze Haze  
Wind Chill: 59°   Ceiling: 3700
Heat Index: 59°   Visibility: 5mi
Dew Point: 46°   Wind: 6mph
Humidity: 63%   Direction: 240°WSW
Pressure: 30.01"   Gusts: NA
Location:  41.67°N, 84.44°W
Report Text: KUSE 242015Z AUTO 24005KT 5SM HZ OVC037 15/08 A3001 RMK AO2
Loading
Personal Weather Stations






























Interactive Weather Map
Tropical Storm Tracking
New forecast layout! Learn more

10-Day Weather Forecast

Advertisements
Track Severe Weather on mobile